sensor_id;sensor_type;location;lat;lon;timestamp;P1;durP1;ratioP1;P2;durP2;ratioP2
33152;SDS011;19509;43.862;26.176;2022-08-11T00:02:06;3.60;;;2.80;;
33152;SDS011;19509;43.862;26.176;2022-08-11T00:04:33;2.50;;;2.30;;
33152;SDS011;19509;43.862;26.176;2022-08-11T00:07:01;6.17;;;2.40;;
33152;SDS011;19509;43.862;26.176;2022-08-11T00:09:36;4.20;;;2.60;;
33152;SDS011;19509;43.862;26.176;2022-08-11T00:12:03;3.20;;;2.67;;
33152;SDS011;19509;43.862;26.176;2022-08-11T00:14:38;4.10;;;2.63;;
33152;SDS011;19509;43.862;26.176;2022-08-11T00:17:07;2.90;;;2.40;;
33152;SDS011;19509;43.862;26.176;2022-08-11T00:19:45;3.40;;;2.40;;
33152;SDS011;19509;43.862;26.176;2022-08-11T00:22:18;3.10;;;2.33;;
33152;SDS011;19509;43.862;26.176;2022-08-11T00:24:45;3.80;;;2.90;;
33152;SDS011;19509;43.862;26.176;2022-08-11T00:27:12;3.50;;;2.37;;
33152;SDS011;19509;43.862;26.176;2022-08-11T00:29:38;3.70;;;2.40;;
33152;SDS011;19509;43.862;26.176;2022-08-11T00:32:04;2.97;;;2.20;;
33152;SDS011;19509;43.862;26.176;2022-08-11T00:34:37;2.70;;;2.27;;
33152;SDS011;19509;43.862;26.176;2022-08-11T00:37:10;3.10;;;2.47;;
33152;SDS011;19509;43.862;26.176;2022-08-11T00:39:44;4.30;;;2.60;;
33152;SDS011;19509;43.862;26.176;2022-08-11T00:45:13;4.00;;;2.30;;
33152;SDS011;19509;43.862;26.176;2022-08-11T01:01:53;4.30;;;2.40;;
33152;SDS011;19509;43.862;26.176;2022-08-11T01:04:30;6.37;;;2.50;;
33152;SDS011;19509;43.862;26.176;2022-08-11T01:53:23;3.37;;;2.63;;
33152;SDS011;19509;43.862;26.176;2022-08-11T02:07:01;3.90;;;2.50;;
33152;SDS011;19509;43.862;26.176;2022-08-11T02:09:55;5.80;;;2.60;;
33152;SDS011;19509;43.862;26.176;2022-08-11T02:15:33;3.73;;;2.80;;
33152;SDS011;19509;43.862;26.176;2022-08-11T02:18:05;2.67;;;2.47;;
33152;SDS011;19509;43.862;26.176;2022-08-11T02:26:22;4.47;;;2.80;;
33152;SDS011;19509;43.862;26.176;2022-08-11T02:29:41;4.60;;;2.70;;
33152;SDS011;19509;43.862;26.176;2022-08-11T02:38:05;3.57;;;2.70;;
33152;SDS011;19509;43.862;26.176;2022-08-11T02:47:47;3.80;;;2.60;;
33152;SDS011;19509;43.862;26.176;2022-08-11T02:50:48;4.37;;;3.10;;
33152;SDS011;19509;43.862;26.176;2022-08-11T02:53:29;3.50;;;3.00;;
33152;SDS011;19509;43.862;26.176;2022-08-11T02:56:30;4.50;;;2.73;;
33152;SDS011;19509;43.862;26.176;2022-08-11T02:59:24;2.97;;;2.60;;
33152;SDS011;19509;43.862;26.176;2022-08-11T03:05:35;3.00;;;2.70;;
33152;SDS011;19509;43.862;26.176;2022-08-11T03:14:23;4.30;;;2.80;;
33152;SDS011;19509;43.862;26.176;2022-08-11T03:28:09;3.20;;;2.87;;
33152;SDS011;19509;43.862;26.176;2022-08-11T03:33:31;3.37;;;3.00;;
33152;SDS011;19509;43.862;26.176;2022-08-11T03:49:55;3.83;;;2.90;;
33152;SDS011;19509;43.862;26.176;2022-08-11T04:04:17;4.27;;;2.87;;
33152;SDS011;19509;43.862;26.176;2022-08-11T04:06:52;4.10;;;3.07;;
33152;SDS011;19509;43.862;26.176;2022-08-11T04:09:56;4.90;;;3.40;;
33152;SDS011;19509;43.862;26.176;2022-08-11T04:16:23;5.70;;;3.00;;
33152;SDS011;19509;43.862;26.176;2022-08-11T04:24:59;5.37;;;3.20;;
33152;SDS011;19509;43.862;26.176;2022-08-11T04:54:04;8.70;;;3.13;;
33152;SDS011;19509;43.862;26.176;2022-08-11T04:57:07;5.10;;;3.00;;
33152;SDS011;19509;43.862;26.176;2022-08-11T05:00:07;4.70;;;2.80;;
33152;SDS011;19509;43.862;26.176;2022-08-11T05:08:45;3.90;;;2.87;;
33152;SDS011;19509;43.862;26.176;2022-08-11T05:12:05;6.80;;;2.70;;
33152;SDS011;19509;43.862;26.176;2022-08-11T05:14:47;5.40;;;2.83;;
33152;SDS011;19509;43.862;26.176;2022-08-11T05:17:35;5.60;;;2.80;;
33152;SDS011;19509;43.862;26.176;2022-08-11T05:20:46;4.97;;;3.00;;
33152;SDS011;19509;43.862;26.176;2022-08-11T05:23:38;6.50;;;3.10;;
33152;SDS011;19509;43.862;26.176;2022-08-11T05:26:24;6.23;;;2.70;;
33152;SDS011;19509;43.862;26.176;2022-08-11T05:32:21;6.73;;;3.23;;
33152;SDS011;19509;43.862;26.176;2022-08-11T05:35:06;5.63;;;2.93;;
33152;SDS011;19509;43.862;26.176;2022-08-11T05:37:41;4.67;;;3.20;;
33152;SDS011;19509;43.862;26.176;2022-08-11T05:40:26;5.33;;;3.10;;
33152;SDS011;19509;43.862;26.176;2022-08-11T05:43:11;6.00;;;3.00;;
33152;SDS011;19509;43.862;26.176;2022-08-11T05:45:57;4.80;;;3.00;;
33152;SDS011;19509;43.862;26.176;2022-08-11T05:48:46;3.17;;;2.63;;
33152;SDS011;19509;43.862;26.176;2022-08-11T05:51:35;4.80;;;3.00;;
33152;SDS011;19509;43.862;26.176;2022-08-11T05:54:22;4.30;;;3.00;;
33152;SDS011;19509;43.862;26.176;2022-08-11T05:57:08;8.33;;;3.13;;
33152;SDS011;19509;43.862;26.176;2022-08-11T05:59:42;10.10;;;3.13;;
33152;SDS011;19509;43.862;26.176;2022-08-11T06:02:10;4.07;;;3.00;;
33152;SDS011;19509;43.862;26.176;2022-08-11T06:04:37;4.63;;;2.97;;
33152;SDS011;19509;43.862;26.176;2022-08-11T06:07:07;4.27;;;3.20;;
33152;SDS011;19509;43.862;26.176;2022-08-11T06:12:02;7.70;;;3.33;;
33152;SDS011;19509;43.862;26.176;2022-08-11T06:14:31;4.37;;;3.23;;
33152;SDS011;19509;43.862;26.176;2022-08-11T06:16:58;5.40;;;3.00;;
33152;SDS011;19509;43.862;26.176;2022-08-11T06:19:37;3.83;;;2.90;;
33152;SDS011;19509;43.862;26.176;2022-08-11T06:22:05;6.90;;;3.23;;
33152;SDS011;19509;43.862;26.176;2022-08-11T06:24:34;3.80;;;3.00;;
33152;SDS011;19509;43.862;26.176;2022-08-11T06:27:02;5.40;;;3.03;;
33152;SDS011;19509;43.862;26.176;2022-08-11T06:29:30;3.67;;;2.97;;
33152;SDS011;19509;43.862;26.176;2022-08-11T06:31:57;3.80;;;2.73;;
33152;SDS011;19509;43.862;26.176;2022-08-11T06:34:27;5.17;;;3.00;;
33152;SDS011;19509;43.862;26.176;2022-08-11T06:37:23;5.70;;;2.90;;
33152;SDS011;19509;43.862;26.176;2022-08-11T06:48:14;3.77;;;2.90;;
33152;SDS011;19509;43.862;26.176;2022-08-11T06:50:45;3.93;;;3.00;;
33152;SDS011;19509;43.862;26.176;2022-08-11T06:53:39;10.77;;;3.83;;
33152;SDS011;19509;43.862;26.176;2022-08-11T06:56:14;3.63;;;3.10;;
33152;SDS011;19509;43.862;26.176;2022-08-11T06:59:14;8.03;;;3.30;;
33152;SDS011;19509;43.862;26.176;2022-08-11T07:10:42;12.93;;;3.43;;
33152;SDS011;19509;43.862;26.176;2022-08-11T07:13:42;4.27;;;3.50;;
33152;SDS011;19509;43.862;26.176;2022-08-11T07:16:28;9.90;;;3.80;;
33152;SDS011;19509;43.862;26.176;2022-08-11T07:19:02;5.43;;;3.40;;
33152;SDS011;19509;43.862;26.176;2022-08-11T07:21:49;8.70;;;3.50;;
33152;SDS011;19509;43.862;26.176;2022-08-11T07:27:52;4.20;;;3.20;;
33152;SDS011;19509;43.862;26.176;2022-08-11T07:30:42;3.97;;;3.27;;
33152;SDS011;19509;43.862;26.176;2022-08-11T07:33:09;4.93;;;3.50;;
33152;SDS011;19509;43.862;26.176;2022-08-11T07:35:41;4.00;;;3.23;;
33152;SDS011;19509;43.862;26.176;2022-08-11T07:38:15;11.60;;;3.83;;
33152;SDS011;19509;43.862;26.176;2022-08-11T07:40:46;4.27;;;3.30;;
33152;SDS011;19509;43.862;26.176;2022-08-11T07:43:12;4.73;;;3.77;;
33152;SDS011;19509;43.862;26.176;2022-08-11T07:45:41;4.97;;;3.30;;
33152;SDS011;19509;43.862;26.176;2022-08-11T07:48:26;4.10;;;3.70;;
33152;SDS011;19509;43.862;26.176;2022-08-11T07:51:13;8.57;;;3.77;;
33152;SDS011;19509;43.862;26.176;2022-08-11T07:54:02;7.07;;;3.70;;
33152;SDS011;19509;43.862;26.176;2022-08-11T07:56:31;6.83;;;4.03;;
33152;SDS011;19509;43.862;26.176;2022-08-11T07:58:59;5.70;;;4.60;;
33152;SDS011;19509;43.862;26.176;2022-08-11T08:01:43;4.37;;;3.87;;
33152;SDS011;19509;43.862;26.176;2022-08-11T08:04:29;4.90;;;3.60;;
33152;SDS011;19509;43.862;26.176;2022-08-11T08:07:13;4.20;;;3.30;;
33152;SDS011;19509;43.862;26.176;2022-08-11T08:10:08;5.80;;;3.30;;
33152;SDS011;19509;43.862;26.176;2022-08-11T08:12:53;4.80;;;3.07;;
33152;SDS011;19509;43.862;26.176;2022-08-11T08:15:39;5.27;;;3.17;;
33152;SDS011;19509;43.862;26.176;2022-08-11T08:18:24;5.03;;;3.47;;
33152;SDS011;19509;43.862;26.176;2022-08-11T08:20:51;5.83;;;3.20;;
33152;SDS011;19509;43.862;26.176;2022-08-11T08:23:19;4.50;;;3.20;;
33152;SDS011;19509;43.862;26.176;2022-08-11T08:25:59;3.87;;;2.80;;
33152;SDS011;19509;43.862;26.176;2022-08-11T08:28:27;3.80;;;3.17;;
33152;SDS011;19509;43.862;26.176;2022-08-11T08:30:53;4.80;;;2.73;;
33152;SDS011;19509;43.862;26.176;2022-08-11T08:33:25;4.57;;;3.10;;
33152;SDS011;19509;43.862;26.176;2022-08-11T08:35:53;4.90;;;2.90;;
33152;SDS011;19509;43.862;26.176;2022-08-11T08:38:42;3.57;;;3.20;;
33152;SDS011;19509;43.862;26.176;2022-08-11T08:41:12;3.33;;;3.00;;
33152;SDS011;19509;43.862;26.176;2022-08-11T08:43:41;5.40;;;2.73;;
33152;SDS011;19509;43.862;26.176;2022-08-11T08:46:09;4.30;;;3.03;;
33152;SDS011;19509;43.862;26.176;2022-08-11T08:48:35;5.70;;;2.67;;
33152;SDS011;19509;43.862;26.176;2022-08-11T08:51:03;3.63;;;3.23;;
33152;SDS011;19509;43.862;26.176;2022-08-11T08:53:52;6.73;;;3.10;;
33152;SDS011;19509;43.862;26.176;2022-08-11T08:56:19;4.40;;;2.70;;
33152;SDS011;19509;43.862;26.176;2022-08-11T08:58:52;8.17;;;2.77;;
33152;SDS011;19509;43.862;26.176;2022-08-11T09:01:18;5.13;;;2.57;;
33152;SDS011;19509;43.862;26.176;2022-08-11T09:03:46;4.30;;;3.00;;
33152;SDS011;19509;43.862;26.176;2022-08-11T09:06:12;4.00;;;2.70;;
33152;SDS011;19509;43.862;26.176;2022-08-11T09:08:42;8.43;;;3.10;;
33152;SDS011;19509;43.862;26.176;2022-08-11T09:11:09;5.53;;;2.80;;
33152;SDS011;19509;43.862;26.176;2022-08-11T09:13:55;3.87;;;3.00;;
33152;SDS011;19509;43.862;26.176;2022-08-11T09:16:21;3.17;;;2.87;;
33152;SDS011;19509;43.862;26.176;2022-08-11T09:18:48;3.10;;;2.80;;
33152;SDS011;19509;43.862;26.176;2022-08-11T09:21:15;3.77;;;2.90;;
33152;SDS011;19509;43.862;26.176;2022-08-11T09:23:44;3.77;;;2.73;;
33152;SDS011;19509;43.862;26.176;2022-08-11T09:26:29;5.63;;;3.10;;
33152;SDS011;19509;43.862;26.176;2022-08-11T09:29:14;3.87;;;3.20;;
33152;SDS011;19509;43.862;26.176;2022-08-11T09:31:40;8.63;;;3.37;;
33152;SDS011;19509;43.862;26.176;2022-08-11T09:34:06;6.83;;;2.93;;
33152;SDS011;19509;43.862;26.176;2022-08-11T09:36:34;4.70;;;2.57;;
33152;SDS011;19509;43.862;26.176;2022-08-11T09:39:20;3.63;;;2.70;;
33152;SDS011;19509;43.862;26.176;2022-08-11T09:42:07;5.10;;;2.70;;
33152;SDS011;19509;43.862;26.176;2022-08-11T09:44:33;3.30;;;2.57;;
33152;SDS011;19509;43.862;26.176;2022-08-11T09:47:17;8.20;;;3.10;;
33152;SDS011;19509;43.862;26.176;2022-08-11T09:49:43;3.10;;;2.80;;
33152;SDS011;19509;43.862;26.176;2022-08-11T09:52:10;6.50;;;3.20;;
33152;SDS011;19509;43.862;26.176;2022-08-11T09:54:38;3.80;;;2.73;;
33152;SDS011;19509;43.862;26.176;2022-08-11T09:57:07;4.50;;;2.77;;
33152;SDS011;19509;43.862;26.176;2022-08-11T09:59:53;5.00;;;2.60;;
33152;SDS011;19509;43.862;26.176;2022-08-11T10:02:26;3.03;;;2.70;;
33152;SDS011;19509;43.862;26.176;2022-08-11T10:04:57;4.90;;;2.90;;
33152;SDS011;19509;43.862;26.176;2022-08-11T10:07:44;3.30;;;2.53;;
33152;SDS011;19509;43.862;26.176;2022-08-11T10:10:15;3.90;;;2.80;;
33152;SDS011;19509;43.862;26.176;2022-08-11T10:12:51;4.23;;;3.07;;
33152;SDS011;19509;43.862;26.176;2022-08-11T10:15:22;4.53;;;3.00;;
33152;SDS011;19509;43.862;26.176;2022-08-11T10:20:52;5.40;;;3.13;;
33152;SDS011;19509;43.862;26.176;2022-08-11T10:23:23;3.43;;;3.00;;
33152;SDS011;19509;43.862;26.176;2022-08-11T10:26:09;7.50;;;2.97;;
33152;SDS011;19509;43.862;26.176;2022-08-11T10:28:55;5.50;;;3.03;;
33152;SDS011;19509;43.862;26.176;2022-08-11T10:31:21;5.73;;;3.00;;
33152;SDS011;19509;43.862;26.176;2022-08-11T10:34:06;8.13;;;3.30;;
33152;SDS011;19509;43.862;26.176;2022-08-11T10:36:37;4.47;;;3.13;;
33152;SDS011;19509;43.862;26.176;2022-08-11T10:39:12;9.57;;;3.40;;
33152;SDS011;19509;43.862;26.176;2022-08-11T10:41:42;4.00;;;3.30;;
33152;SDS011;19509;43.862;26.176;2022-08-11T10:44:40;3.97;;;3.00;;
33152;SDS011;19509;43.862;26.176;2022-08-11T10:47:10;5.70;;;2.90;;
33152;SDS011;19509;43.862;26.176;2022-08-11T10:49:56;5.63;;;2.87;;
33152;SDS011;19509;43.862;26.176;2022-08-11T10:52:41;4.33;;;2.90;;
33152;SDS011;19509;43.862;26.176;2022-08-11T10:55:32;3.43;;;3.13;;
33152;SDS011;19509;43.862;26.176;2022-08-11T10:58:18;3.33;;;2.70;;
33152;SDS011;19509;43.862;26.176;2022-08-11T11:01:03;5.10;;;3.23;;
33152;SDS011;19509;43.862;26.176;2022-08-11T11:03:29;6.50;;;2.90;;
33152;SDS011;19509;43.862;26.176;2022-08-11T11:06:07;4.70;;;3.30;;
33152;SDS011;19509;43.862;26.176;2022-08-11T11:08:41;5.77;;;3.00;;
33152;SDS011;19509;43.862;26.176;2022-08-11T11:11:17;4.67;;;3.03;;
33152;SDS011;19509;43.862;26.176;2022-08-11T11:13:47;8.90;;;3.20;;
33152;SDS011;19509;43.862;26.176;2022-08-11T11:16:36;11.80;;;3.10;;
33152;SDS011;19509;43.862;26.176;2022-08-11T11:19:23;6.20;;;3.10;;
33152;SDS011;19509;43.862;26.176;2022-08-11T11:21:52;4.90;;;3.00;;
33152;SDS011;19509;43.862;26.176;2022-08-11T11:30:26;11.20;;;3.20;;
33152;SDS011;19509;43.862;26.176;2022-08-11T11:36:14;5.93;;;2.80;;
33152;SDS011;19509;43.862;26.176;2022-08-11T11:39:03;5.13;;;2.70;;
33152;SDS011;19509;43.862;26.176;2022-08-11T11:41:31;3.70;;;2.63;;
33152;SDS011;19509;43.862;26.176;2022-08-11T11:43:56;3.60;;;2.70;;
33152;SDS011;19509;43.862;26.176;2022-08-11T11:46:26;4.60;;;2.70;;
33152;SDS011;19509;43.862;26.176;2022-08-11T11:48:53;3.93;;;2.73;;
33152;SDS011;19509;43.862;26.176;2022-08-11T11:51:23;4.87;;;3.13;;
33152;SDS011;19509;43.862;26.176;2022-08-11T11:53:50;4.87;;;2.80;;
33152;SDS011;19509;43.862;26.176;2022-08-11T11:56:16;5.97;;;2.53;;
33152;SDS011;19509;43.862;26.176;2022-08-11T11:58:43;4.20;;;2.60;;
33152;SDS011;19509;43.862;26.176;2022-08-11T12:01:28;4.93;;;2.70;;
33152;SDS011;19509;43.862;26.176;2022-08-11T12:03:55;3.23;;;2.30;;
33152;SDS011;19509;43.862;26.176;2022-08-11T12:06:22;5.40;;;2.60;;
33152;SDS011;19509;43.862;26.176;2022-08-11T12:08:49;4.30;;;2.67;;
33152;SDS011;19509;43.862;26.176;2022-08-11T12:11:18;8.13;;;2.70;;
33152;SDS011;19509;43.862;26.176;2022-08-11T12:14:05;5.60;;;2.80;;
33152;SDS011;19509;43.862;26.176;2022-08-11T12:16:33;4.03;;;2.40;;
33152;SDS011;19509;43.862;26.176;2022-08-11T12:19:02;13.17;;;3.33;;
33152;SDS011;19509;43.862;26.176;2022-08-11T12:21:29;8.73;;;3.07;;
33152;SDS011;19509;43.862;26.176;2022-08-11T12:23:56;6.33;;;2.80;;
33152;SDS011;19509;43.862;26.176;2022-08-11T12:26:42;3.30;;;2.60;;
33152;SDS011;19509;43.862;26.176;2022-08-11T12:29:12;4.50;;;2.70;;
33152;SDS011;19509;43.862;26.176;2022-08-11T12:31:40;3.83;;;2.63;;
33152;SDS011;19509;43.862;26.176;2022-08-11T12:34:07;4.80;;;2.73;;
33152;SDS011;19509;43.862;26.176;2022-08-11T12:36:42;6.73;;;2.77;;
33152;SDS011;19509;43.862;26.176;2022-08-11T12:39:22;4.13;;;2.70;;
33152;SDS011;19509;43.862;26.176;2022-08-11T12:42:12;3.33;;;2.70;;
33152;SDS011;19509;43.862;26.176;2022-08-11T12:44:59;4.00;;;2.60;;
33152;SDS011;19509;43.862;26.176;2022-08-11T12:47:51;5.53;;;2.47;;
33152;SDS011;19509;43.862;26.176;2022-08-11T12:50:36;5.30;;;2.70;;
33152;SDS011;19509;43.862;26.176;2022-08-11T12:53:26;3.57;;;2.53;;
33152;SDS011;19509;43.862;26.176;2022-08-11T12:56:04;4.07;;;2.60;;
33152;SDS011;19509;43.862;26.176;2022-08-11T12:58:52;3.83;;;2.63;;
33152;SDS011;19509;43.862;26.176;2022-08-11T13:01:37;5.40;;;2.70;;
33152;SDS011;19509;43.862;26.176;2022-08-11T13:04:25;4.17;;;2.73;;
33152;SDS011;19509;43.862;26.176;2022-08-11T13:07:19;5.00;;;2.87;;
33152;SDS011;19509;43.862;26.176;2022-08-11T13:09:57;5.97;;;2.83;;
33152;SDS011;19509;43.862;26.176;2022-08-11T13:12:37;7.40;;;2.70;;
33152;SDS011;19509;43.862;26.176;2022-08-11T13:15:20;5.40;;;2.80;;
33152;SDS011;19509;43.862;26.176;2022-08-11T13:17:52;3.87;;;2.60;;
33152;SDS011;19509;43.862;26.176;2022-08-11T13:20:23;4.43;;;2.80;;
33152;SDS011;19509;43.862;26.176;2022-08-11T13:22:53;4.50;;;2.60;;
33152;SDS011;19509;43.862;26.176;2022-08-11T13:25:25;6.50;;;2.90;;
33152;SDS011;19509;43.862;26.176;2022-08-11T13:27:55;3.60;;;2.40;;
33152;SDS011;19509;43.862;26.176;2022-08-11T13:30:26;4.53;;;2.83;;
33152;SDS011;19509;43.862;26.176;2022-08-11T13:33:30;2.83;;;2.43;;
33152;SDS011;19509;43.862;26.176;2022-08-11T13:35:57;5.37;;;2.77;;
33152;SDS011;19509;43.862;26.176;2022-08-11T13:38:34;8.23;;;2.70;;
33152;SDS011;19509;43.862;26.176;2022-08-11T13:41:01;8.67;;;2.77;;
33152;SDS011;19509;43.862;26.176;2022-08-11T13:43:48;6.97;;;2.40;;
33152;SDS011;19509;43.862;26.176;2022-08-11T13:46:14;7.93;;;2.80;;
33152;SDS011;19509;43.862;26.176;2022-08-11T13:48:45;5.23;;;2.67;;
33152;SDS011;19509;43.862;26.176;2022-08-11T13:51:11;4.30;;;2.83;;
33152;SDS011;19509;43.862;26.176;2022-08-11T13:54:04;4.33;;;2.77;;
33152;SDS011;19509;43.862;26.176;2022-08-11T13:56:32;2.97;;;2.50;;
33152;SDS011;19509;43.862;26.176;2022-08-11T13:59:00;4.00;;;2.40;;
33152;SDS011;19509;43.862;26.176;2022-08-11T14:01:31;6.00;;;2.53;;
33152;SDS011;19509;43.862;26.176;2022-08-11T14:04:03;5.10;;;2.60;;
33152;SDS011;19509;43.862;26.176;2022-08-11T14:06:40;4.67;;;2.50;;
33152;SDS011;19509;43.862;26.176;2022-08-11T14:09:12;5.67;;;2.50;;
33152;SDS011;19509;43.862;26.176;2022-08-11T14:11:44;3.90;;;2.60;;
33152;SDS011;19509;43.862;26.176;2022-08-11T14:14:31;3.60;;;2.67;;
33152;SDS011;19509;43.862;26.176;2022-08-11T14:17:00;3.30;;;2.50;;
33152;SDS011;19509;43.862;26.176;2022-08-11T14:19:40;4.23;;;2.83;;
33152;SDS011;19509;43.862;26.176;2022-08-11T14:22:08;3.67;;;2.70;;
33152;SDS011;19509;43.862;26.176;2022-08-11T14:24:46;3.23;;;2.70;;
33152;SDS011;19509;43.862;26.176;2022-08-11T14:27:16;4.90;;;2.60;;
33152;SDS011;19509;43.862;26.176;2022-08-11T14:29:50;7.97;;;3.03;;
33152;SDS011;19509;43.862;26.176;2022-08-11T14:32:18;4.13;;;3.10;;
33152;SDS011;19509;43.862;26.176;2022-08-11T14:34:45;4.60;;;3.33;;
33152;SDS011;19509;43.862;26.176;2022-08-11T14:37:17;4.00;;;3.30;;
33152;SDS011;19509;43.862;26.176;2022-08-11T14:39:51;4.17;;;3.40;;
33152;SDS011;19509;43.862;26.176;2022-08-11T14:42:24;7.30;;;3.50;;
33152;SDS011;19509;43.862;26.176;2022-08-11T14:45:10;5.40;;;3.50;;
33152;SDS011;19509;43.862;26.176;2022-08-11T14:47:58;6.23;;;3.10;;
33152;SDS011;19509;43.862;26.176;2022-08-11T14:50:32;9.33;;;4.03;;
33152;SDS011;19509;43.862;26.176;2022-08-11T14:53:02;7.63;;;3.10;;
33152;SDS011;19509;43.862;26.176;2022-08-11T14:55:36;5.37;;;2.97;;
33152;SDS011;19509;43.862;26.176;2022-08-11T14:58:23;5.10;;;3.20;;
33152;SDS011;19509;43.862;26.176;2022-08-11T15:00:54;6.70;;;3.40;;
33152;SDS011;19509;43.862;26.176;2022-08-11T15:03:24;5.40;;;3.37;;
33152;SDS011;19509;43.862;26.176;2022-08-11T15:05:55;4.77;;;3.30;;
33152;SDS011;19509;43.862;26.176;2022-08-11T15:08:28;5.73;;;3.33;;
33152;SDS011;19509;43.862;26.176;2022-08-11T15:11:15;4.70;;;3.23;;
33152;SDS011;19509;43.862;26.176;2022-08-11T15:14:04;4.33;;;2.83;;
33152;SDS011;19509;43.862;26.176;2022-08-11T15:16:41;3.87;;;2.80;;
33152;SDS011;19509;43.862;26.176;2022-08-11T15:19:30;5.87;;;2.80;;
33152;SDS011;19509;43.862;26.176;2022-08-11T15:21:58;4.23;;;2.73;;
33152;SDS011;19509;43.862;26.176;2022-08-11T15:24:44;5.17;;;2.80;;
33152;SDS011;19509;43.862;26.176;2022-08-11T15:27:13;4.43;;;2.70;;
33152;SDS011;19509;43.862;26.176;2022-08-11T15:30:03;3.80;;;2.50;;
33152;SDS011;19509;43.862;26.176;2022-08-11T15:32:51;6.77;;;2.77;;
33152;SDS011;19509;43.862;26.176;2022-08-11T15:35:38;6.30;;;2.43;;
33152;SDS011;19509;43.862;26.176;2022-08-11T15:38:23;3.53;;;2.83;;
33152;SDS011;19509;43.862;26.176;2022-08-11T15:40:50;3.10;;;2.50;;
33152;SDS011;19509;43.862;26.176;2022-08-11T15:43:41;3.77;;;2.53;;
33152;SDS011;19509;43.862;26.176;2022-08-11T15:46:36;4.20;;;2.40;;
33152;SDS011;19509;43.862;26.176;2022-08-11T15:49:37;5.17;;;2.67;;
33152;SDS011;19509;43.862;26.176;2022-08-11T15:52:09;3.33;;;2.23;;
33152;SDS011;19509;43.862;26.176;2022-08-11T15:54:39;4.30;;;2.50;;
33152;SDS011;19509;43.862;26.176;2022-08-11T15:57:10;3.60;;;2.13;;
33152;SDS011;19509;43.862;26.176;2022-08-11T16:00:10;3.03;;;2.27;;
33152;SDS011;19509;43.862;26.176;2022-08-11T16:02:55;6.93;;;2.30;;
33152;SDS011;19509;43.862;26.176;2022-08-11T16:05:42;3.10;;;2.50;;
33152;SDS011;19509;43.862;26.176;2022-08-11T16:08:16;4.00;;;2.43;;
33152;SDS011;19509;43.862;26.176;2022-08-11T16:10:49;3.17;;;2.50;;
33152;SDS011;19509;43.862;26.176;2022-08-11T16:13:20;3.73;;;2.80;;
33152;SDS011;19509;43.862;26.176;2022-08-11T16:15:52;4.20;;;2.60;;
33152;SDS011;19509;43.862;26.176;2022-08-11T16:18:43;2.80;;;2.40;;
33152;SDS011;19509;43.862;26.176;2022-08-11T16:21:20;4.37;;;2.80;;
33152;SDS011;19509;43.862;26.176;2022-08-11T16:24:10;3.40;;;2.47;;
33152;SDS011;19509;43.862;26.176;2022-08-11T16:26:40;3.40;;;2.70;;
33152;SDS011;19509;43.862;26.176;2022-08-11T16:29:20;3.67;;;2.50;;
33152;SDS011;19509;43.862;26.176;2022-08-11T16:31:49;3.20;;;2.60;;
33152;SDS011;19509;43.862;26.176;2022-08-11T16:34:35;5.60;;;2.53;;
33152;SDS011;19509;43.862;26.176;2022-08-11T16:37:32;4.00;;;2.67;;
33152;SDS011;19509;43.862;26.176;2022-08-11T16:40:26;3.90;;;2.40;;
33152;SDS011;19509;43.862;26.176;2022-08-11T16:43:12;7.53;;;2.40;;
33152;SDS011;19509;43.862;26.176;2022-08-11T16:45:59;4.20;;;2.67;;
33152;SDS011;19509;43.862;26.176;2022-08-11T16:48:49;4.37;;;2.53;;
33152;SDS011;19509;43.862;26.176;2022-08-11T16:51:27;5.33;;;2.60;;
33152;SDS011;19509;43.862;26.176;2022-08-11T16:53:55;3.43;;;2.63;;
33152;SDS011;19509;43.862;26.176;2022-08-11T16:56:33;4.30;;;2.50;;
33152;SDS011;19509;43.862;26.176;2022-08-11T16:59:13;4.03;;;2.60;;
33152;SDS011;19509;43.862;26.176;2022-08-11T17:01:51;3.83;;;2.90;;
33152;SDS011;19509;43.862;26.176;2022-08-11T17:07:29;3.40;;;2.60;;
33152;SDS011;19509;43.862;26.176;2022-08-11T17:10:23;4.43;;;2.73;;
33152;SDS011;19509;43.862;26.176;2022-08-11T17:13:16;5.40;;;2.77;;
33152;SDS011;19509;43.862;26.176;2022-08-11T17:15:49;4.83;;;3.57;;
33152;SDS011;19509;43.862;26.176;2022-08-11T17:21:47;8.17;;;4.37;;
33152;SDS011;19509;43.862;26.176;2022-08-11T17:24:34;5.13;;;4.63;;
33152;SDS011;19509;43.862;26.176;2022-08-11T17:27:15;4.73;;;4.33;;
33152;SDS011;19509;43.862;26.176;2022-08-11T17:29:45;9.57;;;5.10;;
33152;SDS011;19509;43.862;26.176;2022-08-11T17:32:22;13.93;;;5.00;;
33152;SDS011;19509;43.862;26.176;2022-08-11T17:35:20;16.60;;;4.37;;
33152;SDS011;19509;43.862;26.176;2022-08-11T17:38:13;3.87;;;3.43;;
33152;SDS011;19509;43.862;26.176;2022-08-11T17:41:02;9.60;;;3.47;;
33152;SDS011;19509;43.862;26.176;2022-08-11T17:43:47;6.10;;;3.07;;
33152;SDS011;19509;43.862;26.176;2022-08-11T17:46:43;9.80;;;3.63;;
33152;SDS011;19509;43.862;26.176;2022-08-11T17:49:31;8.00;;;3.13;;
33152;SDS011;19509;43.862;26.176;2022-08-11T17:52:04;5.83;;;2.93;;
33152;SDS011;19509;43.862;26.176;2022-08-11T17:54:51;6.67;;;3.50;;
33152;SDS011;19509;43.862;26.176;2022-08-11T17:57:39;9.00;;;4.27;;
33152;SDS011;19509;43.862;26.176;2022-08-11T18:00:28;19.30;;;4.20;;
33152;SDS011;19509;43.862;26.176;2022-08-11T18:02:55;11.87;;;3.83;;
33152;SDS011;19509;43.862;26.176;2022-08-11T18:05:42;12.73;;;3.53;;
33152;SDS011;19509;43.862;26.176;2022-08-11T18:08:19;9.63;;;3.70;;
33152;SDS011;19509;43.862;26.176;2022-08-11T18:11:04;11.00;;;4.93;;
33152;SDS011;19509;43.862;26.176;2022-08-11T18:13:52;19.27;;;5.83;;
33152;SDS011;19509;43.862;26.176;2022-08-11T18:16:44;15.27;;;6.37;;
33152;SDS011;19509;43.862;26.176;2022-08-11T18:19:32;21.83;;;6.23;;
33152;SDS011;19509;43.862;26.176;2022-08-11T18:22:20;23.07;;;6.47;;
33152;SDS011;19509;43.862;26.176;2022-08-11T18:25:09;18.53;;;5.47;;
33152;SDS011;19509;43.862;26.176;2022-08-11T18:27:58;17.27;;;5.57;;
33152;SDS011;19509;43.862;26.176;2022-08-11T18:30:47;11.80;;;6.10;;
33152;SDS011;19509;43.862;26.176;2022-08-11T18:33:36;15.77;;;5.97;;
33152;SDS011;19509;43.862;26.176;2022-08-11T18:36:30;11.10;;;4.33;;
33152;SDS011;19509;43.862;26.176;2022-08-11T18:39:19;6.23;;;3.70;;
33152;SDS011;19509;43.862;26.176;2022-08-11T18:42:07;22.10;;;4.53;;
33152;SDS011;19509;43.862;26.176;2022-08-11T18:44:58;10.13;;;4.20;;
33152;SDS011;19509;43.862;26.176;2022-08-11T18:47:47;13.80;;;3.87;;
33152;SDS011;19509;43.862;26.176;2022-08-11T18:50:33;9.80;;;3.40;;
33152;SDS011;19509;43.862;26.176;2022-08-11T18:53:21;13.10;;;4.10;;
33152;SDS011;19509;43.862;26.176;2022-08-11T18:56:10;184.33;;;17.47;;
33152;SDS011;19509;43.862;26.176;2022-08-11T18:59:05;287.40;;;26.67;;
33152;SDS011;19509;43.862;26.176;2022-08-11T19:01:50;65.60;;;8.67;;
33152;SDS011;19509;43.862;26.176;2022-08-11T19:04:38;29.60;;;6.93;;
33152;SDS011;19509;43.862;26.176;2022-08-11T19:07:24;13.50;;;4.67;;
33152;SDS011;19509;43.862;26.176;2022-08-11T19:10:11;40.23;;;6.70;;
33152;SDS011;19509;43.862;26.176;2022-08-11T19:12:57;239.93;;;21.60;;
33152;SDS011;19509;43.862;26.176;2022-08-11T19:15:42;122.63;;;12.67;;
33152;SDS011;19509;43.862;26.176;2022-08-11T19:18:30;34.97;;;5.90;;
33152;SDS011;19509;43.862;26.176;2022-08-11T19:21:20;24.80;;;5.93;;
33152;SDS011;19509;43.862;26.176;2022-08-11T19:24:06;14.03;;;4.23;;
33152;SDS011;19509;43.862;26.176;2022-08-11T19:26:57;12.33;;;3.90;;
33152;SDS011;19509;43.862;26.176;2022-08-11T19:29:42;8.03;;;3.63;;
33152;SDS011;19509;43.862;26.176;2022-08-11T19:32:28;6.40;;;3.30;;
33152;SDS011;19509;43.862;26.176;2022-08-11T19:35:14;5.93;;;3.40;;